PWSweather.com
Personal Weather Stations
Station Observations
WISCHPK61
Green Bay Schmitt Park, Green Bay, WI 54311

Green Bay Schmitt ParkGreen Bay, WI 54311

Lat: 44.514277, Lon: -87.935067

Elevation: 735

Station Type: Acu Rite Pro Weather Center model 02032C

http://greenbayweathercam.com

High Low Average
Temperature 19.6°F-6.9°C -2.0°F-18.9°C 8.7°F-12.9°C
Dew Point 19.4°F-7.0°C -9.4°F-23.0°C 7.2°F-13.8°C
Winds 3.5 mph 5.6 kmh Calm Calm Calm WCalm W
Wind Gusts 5.8 mph9.3 kmh -- --
Humidity 99% 66% 94%
Pressure 29.57 in1001.4 mb 29.41 in995.9 mb -
Precipitation 0.00 in0.0 mm - -
Hour Temp Dew Point Humidity Winds Wind Gusts Pressure Precip Precip Rate Daily Precip Total
12:00 AM 19.8°F-6.8°C 12.8°F-10.7°C 74% Calm Calm -- 29.52 in999.7 mb - 0.00 in0.0 mm 0.30 in7.6 mm
01:00 AM 16.6°F-8.6°C 16.3°F-8.7°C 99% Calm Calm -- 29.54 in1000.3 mb - 0.00 in0.0 mm 0.00 in0.0 mm
02:00 AM 14.5°F-9.7°C 14.3°F-9.8°C 99% Calm Calm -- 29.56 in1001.0 mb - 0.00 in0.0 mm 0.00 in0.0 mm
03:00 AM 12.9°F-10.6°C 12.7°F-10.7°C 99% Calm Calm -- 29.57 in1001.4 mb - 0.00 in0.0 mm 0.00 in0.0 mm
04:00 AM 11.5°F-11.4°C 11.3°F-11.5°C 99% Calm Calm -- 29.56 in1001.0 mb - 0.00 in0.0 mm 0.00 in0.0 mm
05:00 AM 9.1°F-12.7°C 8.9°F-12.8°C 99% Calm Calm -- 29.55 in1000.7 mb - 0.00 in0.0 mm 0.00 in0.0 mm
06:00 AM 5.9°F-14.5°C -0.3°F-17.9°C 75% Calm Calm -- 29.55 in1000.7 mb - 0.00 in0.0 mm 0.00 in0.0 mm
07:00 AM 3.4°F-15.9°C 3.2°F-16.0°C 99% Calm Calm -- 29.57 in1001.4 mb - 0.00 in0.0 mm 0.00 in0.0 mm
08:00 AM 3.0°F-16.1°C 2.8°F-16.2°C 99% Calm Calm -- 29.56 in1001.0 mb - 0.00 in0.0 mm 0.00 in0.0 mm
09:00 AM 4.6°F-15.2°C -4.0°F-20.0°C 67% Calm Calm -- 29.56 in1001.0 mb - 0.00 in0.0 mm 0.00 in0.0 mm
10:00 AM 8.7°F-12.9°C 8.5°F-13.1°C 99% Calm Calm 1.2 mph1.9 kmh 29.55 in1000.7 mb - 0.00 in0.0 mm 0.00 in0.0 mm
11:00 AM 11.0°F-11.7°C 10.8°F-11.8°C 99% Calm Calm -- 29.52 in999.7 mb - 0.00 in0.0 mm 0.00 in0.0 mm
12:00 PM 12.5°F-10.8°C 12.3°F-10.9°C 99% 3.5 mph WNW5.6 kmh WNW 5.8 mph9.3 kmh 29.51 in999.3 mb - 0.00 in0.0 mm 0.00 in0.0 mm
01:00 PM 17.2°F-8.2°C 16.9°F-8.4°C 99% Calm Calm -- 29.49 in998.6 mb - 0.00 in0.0 mm 0.00 in0.0 mm
02:00 PM 19.6°F-6.9°C 19.4°F-7.0°C 99% Calm Calm -- 29.47 in998.0 mb - 0.00 in0.0 mm 0.00 in0.0 mm
03:00 PM 18.2°F-7.7°C 17.5°F-8.1°C 97% Calm Calm -- 29.43 in996.6 mb - 0.00 in0.0 mm 0.00 in0.0 mm
04:00 PM 15.3°F-9.3°C 14.9°F-9.5°C 98% Calm Calm -- 29.42 in996.3 mb - 0.00 in0.0 mm 0.00 in0.0 mm
05:00 PM 10.2°F-12.1°C 2.4°F-16.4°C 70% Calm Calm -- 29.42 in996.3 mb - 0.00 in0.0 mm 0.00 in0.0 mm
06:00 PM 7.3°F-13.7°C 7.1°F-13.8°C 99% Calm Calm -- 29.41 in995.9 mb - 0.00 in0.0 mm 0.00 in0.0 mm
07:00 PM 4.6°F-15.2°C 4.4°F-15.3°C 99% Calm Calm -- 29.41 in995.9 mb - 0.00 in0.0 mm 0.00 in0.0 mm
08:00 PM 3.3°F-15.9°C 3.0°F-16.1°C 99% Calm Calm -- 29.42 in996.3 mb - 0.00 in0.0 mm 0.00 in0.0 mm
09:00 PM 2.1°F-16.6°C 1.9°F-16.7°C 99% Calm Calm -- 29.42 in996.3 mb - 0.00 in0.0 mm 0.00 in0.0 mm
10:00 PM 0.9°F-17.3°C 0.7°F-17.4°C 99% Calm Calm -- 29.43 in996.6 mb - 0.00 in0.0 mm 0.00 in0.0 mm
11:00 PM -0.8°F-18.2°C -9.4°F-23.0°C 66% Calm Calm -- 29.43 in996.6 mb - 0.00 in0.0 mm 0.00 in0.0 mm